sensor_id;sensor_type;location;lat;lon;timestamp;temperature;humidity
52517;DHT22;59374;53.210;5.726;2022-08-18T00:01:23;17.80;99.90
52517;DHT22;59374;53.210;5.726;2022-08-18T00:03:49;17.80;99.90
52517;DHT22;59374;53.210;5.726;2022-08-18T00:06:18;17.70;99.90
52517;DHT22;59374;53.210;5.726;2022-08-18T00:08:43;17.70;99.90
52517;DHT22;59374;53.210;5.726;2022-08-18T00:11:09;17.70;99.90
52517;DHT22;59374;53.210;5.726;2022-08-18T00:13:35;17.70;99.90
52517;DHT22;59374;53.210;5.726;2022-08-18T00:16:00;17.70;99.90
52517;DHT22;59374;53.210;5.726;2022-08-18T00:18:26;17.70;99.90
52517;DHT22;59374;53.210;5.726;2022-08-18T00:20:52;17.70;99.90
52517;DHT22;59374;53.210;5.726;2022-08-18T00:23:17;17.60;99.90
52517;DHT22;59374;53.210;5.726;2022-08-18T00:25:43;17.60;99.90
52517;DHT22;59374;53.210;5.726;2022-08-18T00:28:10;17.60;99.90
52517;DHT22;59374;53.210;5.726;2022-08-18T00:30:36;17.70;99.90
52517;DHT22;59374;53.210;5.726;2022-08-18T00:33:01;17.60;99.90
52517;DHT22;59374;53.210;5.726;2022-08-18T00:35:29;17.60;99.90
52517;DHT22;59374;53.210;5.726;2022-08-18T00:37:55;17.60;99.90
52517;DHT22;59374;53.210;5.726;2022-08-18T00:40:22;17.60;99.90
52517;DHT22;59374;53.210;5.726;2022-08-18T00:42:53;17.60;99.90
52517;DHT22;59374;53.210;5.726;2022-08-18T00:45:25;17.60;99.90
52517;DHT22;59374;53.210;5.726;2022-08-18T00:47:51;17.70;99.90
52517;DHT22;59374;53.210;5.726;2022-08-18T00:50:21;17.60;99.90
52517;DHT22;59374;53.210;5.726;2022-08-18T00:52:50;17.70;99.90
52517;DHT22;59374;53.210;5.726;2022-08-18T00:55:17;17.60;99.90
52517;DHT22;59374;53.210;5.726;2022-08-18T00:57:45;17.70;99.90
52517;DHT22;59374;53.210;5.726;2022-08-18T01:00:12;17.70;99.90
52517;DHT22;59374;53.210;5.726;2022-08-18T01:02:44;17.70;99.90
52517;DHT22;59374;53.210;5.726;2022-08-18T01:05:13;17.70;99.90
52517;DHT22;59374;53.210;5.726;2022-08-18T01:07:41;17.70;99.90
52517;DHT22;59374;53.210;5.726;2022-08-18T01:10:11;17.70;99.90
52517;DHT22;59374;53.210;5.726;2022-08-18T01:12:42;17.70;99.90
52517;DHT22;59374;53.210;5.726;2022-08-18T01:15:08;17.70;99.90
52517;DHT22;59374;53.210;5.726;2022-08-18T01:17:35;17.70;99.90
52517;DHT22;59374;53.210;5.726;2022-08-18T01:20:20;17.70;99.90
52517;DHT22;59374;53.210;5.726;2022-08-18T01:23:15;17.70;99.90
52517;DHT22;59374;53.210;5.726;2022-08-18T01:25:41;17.70;99.90
52517;DHT22;59374;53.210;5.726;2022-08-18T01:28:38;17.70;99.90
52517;DHT22;59374;53.210;5.726;2022-08-18T01:31:05;17.70;99.90
52517;DHT22;59374;53.210;5.726;2022-08-18T01:33:32;17.70;99.90
52517;DHT22;59374;53.210;5.726;2022-08-18T01:35:59;17.70;99.90
52517;DHT22;59374;53.210;5.726;2022-08-18T01:38:25;17.70;99.90
52517;DHT22;59374;53.210;5.726;2022-08-18T01:40:51;17.70;99.90
52517;DHT22;59374;53.210;5.726;2022-08-18T01:43:19;17.70;99.90
52517;DHT22;59374;53.210;5.726;2022-08-18T01:45:44;17.70;99.90
52517;DHT22;59374;53.210;5.726;2022-08-18T01:48:10;17.70;99.90
52517;DHT22;59374;53.210;5.726;2022-08-18T01:50:36;17.70;99.90
52517;DHT22;59374;53.210;5.726;2022-08-18T01:53:04;17.70;99.90
52517;DHT22;59374;53.210;5.726;2022-08-18T01:55:31;17.70;99.90
52517;DHT22;59374;53.210;5.726;2022-08-18T01:57:56;17.70;99.90
52517;DHT22;59374;53.210;5.726;2022-08-18T02:00:22;17.80;99.90
52517;DHT22;59374;53.210;5.726;2022-08-18T02:02:49;17.80;99.90
52517;DHT22;59374;53.210;5.726;2022-08-18T02:05:16;17.80;99.90
52517;DHT22;59374;53.210;5.726;2022-08-18T02:07:43;17.90;99.90
52517;DHT22;59374;53.210;5.726;2022-08-18T02:10:09;17.90;99.90
52517;DHT22;59374;53.210;5.726;2022-08-18T02:12:35;18.00;99.90
52517;DHT22;59374;53.210;5.726;2022-08-18T02:15:02;18.00;99.90
52517;DHT22;59374;53.210;5.726;2022-08-18T02:17:27;17.90;99.90
52517;DHT22;59374;53.210;5.726;2022-08-18T02:19:53;17.90;99.90
52517;DHT22;59374;53.210;5.726;2022-08-18T02:22:19;17.90;99.90
52517;DHT22;59374;53.210;5.726;2022-08-18T02:24:44;18.00;99.90
52517;DHT22;59374;53.210;5.726;2022-08-18T02:27:14;18.00;99.90
52517;DHT22;59374;53.210;5.726;2022-08-18T02:29:39;18.00;99.90
52517;DHT22;59374;53.210;5.726;2022-08-18T02:32:05;18.00;99.90
52517;DHT22;59374;53.210;5.726;2022-08-18T02:34:31;17.90;99.90
52517;DHT22;59374;53.210;5.726;2022-08-18T02:36:58;17.90;99.90
52517;DHT22;59374;53.210;5.726;2022-08-18T02:39:23;17.80;99.90
52517;DHT22;59374;53.210;5.726;2022-08-18T02:41:49;17.80;99.90
52517;DHT22;59374;53.210;5.726;2022-08-18T02:44:15;17.80;99.90
52517;DHT22;59374;53.210;5.726;2022-08-18T02:46:41;17.80;99.90
52517;DHT22;59374;53.210;5.726;2022-08-18T02:49:07;17.70;99.90
52517;DHT22;59374;53.210;5.726;2022-08-18T02:51:33;17.80;99.90
52517;DHT22;59374;53.210;5.726;2022-08-18T02:53:58;17.80;99.90
52517;DHT22;59374;53.210;5.726;2022-08-18T02:56:27;17.80;99.90
52517;DHT22;59374;53.210;5.726;2022-08-18T02:58:54;17.80;99.90
52517;DHT22;59374;53.210;5.726;2022-08-18T03:01:21;17.90;99.90
52517;DHT22;59374;53.210;5.726;2022-08-18T03:03:47;17.90;99.90
52517;DHT22;59374;53.210;5.726;2022-08-18T03:06:13;17.90;99.90
52517;DHT22;59374;53.210;5.726;2022-08-18T03:08:38;18.00;99.90
52517;DHT22;59374;53.210;5.726;2022-08-18T03:11:04;18.00;99.90
52517;DHT22;59374;53.210;5.726;2022-08-18T03:13:29;18.00;99.90
52517;DHT22;59374;53.210;5.726;2022-08-18T03:15:55;18.00;99.90
52517;DHT22;59374;53.210;5.726;2022-08-18T03:18:21;18.10;99.90
52517;DHT22;59374;53.210;5.726;2022-08-18T03:20:48;18.10;99.90
52517;DHT22;59374;53.210;5.726;2022-08-18T03:23:13;18.10;99.90
52517;DHT22;59374;53.210;5.726;2022-08-18T03:25:45;18.10;99.90
52517;DHT22;59374;53.210;5.726;2022-08-18T03:28:11;18.20;99.90
52517;DHT22;59374;53.210;5.726;2022-08-18T03:30:37;18.20;99.90
52517;DHT22;59374;53.210;5.726;2022-08-18T03:33:03;18.20;99.90
52517;DHT22;59374;53.210;5.726;2022-08-18T03:35:28;18.20;99.90
52517;DHT22;59374;53.210;5.726;2022-08-18T03:37:57;18.20;99.90
52517;DHT22;59374;53.210;5.726;2022-08-18T03:40:23;18.20;99.90
52517;DHT22;59374;53.210;5.726;2022-08-18T03:42:48;18.30;99.90
52517;DHT22;59374;53.210;5.726;2022-08-18T03:45:14;18.30;99.90
52517;DHT22;59374;53.210;5.726;2022-08-18T03:47:39;18.30;99.90
52517;DHT22;59374;53.210;5.726;2022-08-18T03:50:05;18.30;99.90
52517;DHT22;59374;53.210;5.726;2022-08-18T03:52:31;18.30;99.90
52517;DHT22;59374;53.210;5.726;2022-08-18T03:54:56;18.30;99.90
52517;DHT22;59374;53.210;5.726;2022-08-18T03:57:22;18.40;99.90
52517;DHT22;59374;53.210;5.726;2022-08-18T03:59:47;18.40;99.90
52517;DHT22;59374;53.210;5.726;2022-08-18T04:02:13;18.40;99.90
52517;DHT22;59374;53.210;5.726;2022-08-18T04:04:39;18.40;99.90
52517;DHT22;59374;53.210;5.726;2022-08-18T04:07:06;18.40;99.90
52517;DHT22;59374;53.210;5.726;2022-08-18T04:09:32;18.50;99.90
52517;DHT22;59374;53.210;5.726;2022-08-18T04:12:02;18.40;99.90
52517;DHT22;59374;53.210;5.726;2022-08-18T04:14:28;18.40;99.90
52517;DHT22;59374;53.210;5.726;2022-08-18T04:16:57;18.40;99.90
52517;DHT22;59374;53.210;5.726;2022-08-18T04:19:23;18.30;99.90
52517;DHT22;59374;53.210;5.726;2022-08-18T04:21:50;18.40;99.90
52517;DHT22;59374;53.210;5.726;2022-08-18T04:24:16;18.30;99.90
52517;DHT22;59374;53.210;5.726;2022-08-18T04:26:43;18.30;99.90
52517;DHT22;59374;53.210;5.726;2022-08-18T04:29:10;18.30;99.90
52517;DHT22;59374;53.210;5.726;2022-08-18T04:31:36;18.30;99.90
52517;DHT22;59374;53.210;5.726;2022-08-18T04:34:02;18.30;99.90
52517;DHT22;59374;53.210;5.726;2022-08-18T04:36:28;18.30;99.90
52517;DHT22;59374;53.210;5.726;2022-08-18T04:38:54;18.30;99.90
52517;DHT22;59374;53.210;5.726;2022-08-18T04:41:20;18.30;99.90
52517;DHT22;59374;53.210;5.726;2022-08-18T04:43:52;18.30;99.90
52517;DHT22;59374;53.210;5.726;2022-08-18T04:46:17;18.30;99.90
52517;DHT22;59374;53.210;5.726;2022-08-18T04:48:43;18.30;99.90
52517;DHT22;59374;53.210;5.726;2022-08-18T04:51:09;18.30;99.90
52517;DHT22;59374;53.210;5.726;2022-08-18T04:53:36;18.30;99.90
52517;DHT22;59374;53.210;5.726;2022-08-18T04:56:14;18.30;99.90
52517;DHT22;59374;53.210;5.726;2022-08-18T04:58:44;18.30;99.90
52517;DHT22;59374;53.210;5.726;2022-08-18T05:01:10;18.30;99.90
52517;DHT22;59374;53.210;5.726;2022-08-18T05:03:36;18.30;99.90
52517;DHT22;59374;53.210;5.726;2022-08-18T05:06:03;18.30;99.90
52517;DHT22;59374;53.210;5.726;2022-08-18T05:08:28;18.30;99.90
52517;DHT22;59374;53.210;5.726;2022-08-18T05:10:54;18.30;99.90
52517;DHT22;59374;53.210;5.726;2022-08-18T05:13:21;18.30;99.90
52517;DHT22;59374;53.210;5.726;2022-08-18T05:15:54;18.30;99.90
52517;DHT22;59374;53.210;5.726;2022-08-18T05:18:21;18.30;99.90
52517;DHT22;59374;53.210;5.726;2022-08-18T05:20:52;18.30;99.90
52517;DHT22;59374;53.210;5.726;2022-08-18T05:23:20;18.30;99.90
52517;DHT22;59374;53.210;5.726;2022-08-18T05:25:46;18.30;99.90
52517;DHT22;59374;53.210;5.726;2022-08-18T05:28:11;18.30;99.90
52517;DHT22;59374;53.210;5.726;2022-08-18T05:30:37;18.30;99.90
52517;DHT22;59374;53.210;5.726;2022-08-18T05:33:04;18.30;99.90
52517;DHT22;59374;53.210;5.726;2022-08-18T05:35:32;18.30;99.90
52517;DHT22;59374;53.210;5.726;2022-08-18T05:40:25;18.10;99.90
52517;DHT22;59374;53.210;5.726;2022-08-18T05:42:51;18.10;99.90
52517;DHT22;59374;53.210;5.726;2022-08-18T05:45:18;18.10;99.90
52517;DHT22;59374;53.210;5.726;2022-08-18T05:47:44;18.10;99.90
52517;DHT22;59374;53.210;5.726;2022-08-18T05:50:12;18.00;99.90
52517;DHT22;59374;53.210;5.726;2022-08-18T05:52:58;18.00;99.90
52517;DHT22;59374;53.210;5.726;2022-08-18T05:55:27;18.00;99.90
52517;DHT22;59374;53.210;5.726;2022-08-18T05:58:20;18.00;99.90
52517;DHT22;59374;53.210;5.726;2022-08-18T06:00:50;18.10;99.90
52517;DHT22;59374;53.210;5.726;2022-08-18T06:03:21;18.10;99.90
52517;DHT22;59374;53.210;5.726;2022-08-18T06:05:58;18.10;99.90
52517;DHT22;59374;53.210;5.726;2022-08-18T06:08:27;18.10;99.90
52517;DHT22;59374;53.210;5.726;2022-08-18T06:10:53;18.10;99.90
52517;DHT22;59374;53.210;5.726;2022-08-18T06:13:19;18.10;99.90
52517;DHT22;59374;53.210;5.726;2022-08-18T06:23:24;18.10;99.90
52517;DHT22;59374;53.210;5.726;2022-08-18T06:28:19;18.10;99.90
52517;DHT22;59374;53.210;5.726;2022-08-18T06:30:47;18.20;99.90
52517;DHT22;59374;53.210;5.726;2022-08-18T06:36:02;18.30;99.90
52517;DHT22;59374;53.210;5.726;2022-08-18T06:41:18;18.30;99.90
52517;DHT22;59374;53.210;5.726;2022-08-18T06:49:02;18.40;99.90
52517;DHT22;59374;53.210;5.726;2022-08-18T06:51:28;18.40;99.90
52517;DHT22;59374;53.210;5.726;2022-08-18T06:54:07;18.40;99.90
52517;DHT22;59374;53.210;5.726;2022-08-18T06:56:49;18.40;99.90
52517;DHT22;59374;53.210;5.726;2022-08-18T06:59:20;18.50;99.90
52517;DHT22;59374;53.210;5.726;2022-08-18T07:01:46;18.50;99.90
52517;DHT22;59374;53.210;5.726;2022-08-18T07:06:58;18.70;99.90
52517;DHT22;59374;53.210;5.726;2022-08-18T07:09:24;18.80;99.90
52517;DHT22;59374;53.210;5.726;2022-08-18T07:12:02;19.00;99.90
52517;DHT22;59374;53.210;5.726;2022-08-18T07:14:28;19.10;99.90
52517;DHT22;59374;53.210;5.726;2022-08-18T07:17:10;19.20;99.90
52517;DHT22;59374;53.210;5.726;2022-08-18T07:19:36;19.30;99.90
52517;DHT22;59374;53.210;5.726;2022-08-18T07:24:29;19.30;99.90
52517;DHT22;59374;53.210;5.726;2022-08-18T07:26:57;19.30;99.90
52517;DHT22;59374;53.210;5.726;2022-08-18T07:29:25;19.10;99.90
52517;DHT22;59374;53.210;5.726;2022-08-18T07:31:51;19.00;99.90
52517;DHT22;59374;53.210;5.726;2022-08-18T07:34:22;19.00;99.90
52517;DHT22;59374;53.210;5.726;2022-08-18T07:37:06;19.00;99.90
52517;DHT22;59374;53.210;5.726;2022-08-18T07:39:37;19.00;99.90
52517;DHT22;59374;53.210;5.726;2022-08-18T07:42:12;19.20;99.90
52517;DHT22;59374;53.210;5.726;2022-08-18T07:44:44;19.30;99.90
52517;DHT22;59374;53.210;5.726;2022-08-18T07:47:14;19.50;99.90
52517;DHT22;59374;53.210;5.726;2022-08-18T07:49:42;19.60;99.90
52517;DHT22;59374;53.210;5.726;2022-08-18T07:52:23;19.80;99.90
52517;DHT22;59374;53.210;5.726;2022-08-18T07:57:24;20.00;99.90
52517;DHT22;59374;53.210;5.726;2022-08-18T08:02:49;20.10;99.90
52517;DHT22;59374;53.210;5.726;2022-08-18T08:05:19;20.20;99.90
52517;DHT22;59374;53.210;5.726;2022-08-18T08:17:49;20.40;99.90
52517;DHT22;59374;53.210;5.726;2022-08-18T08:23:08;20.60;99.90
52517;DHT22;59374;53.210;5.726;2022-08-18T08:25:42;20.70;99.90
52517;DHT22;59374;53.210;5.726;2022-08-18T08:31:01;20.80;99.90
52517;DHT22;59374;53.210;5.726;2022-08-18T08:33:36;20.80;99.90
52517;DHT22;59374;53.210;5.726;2022-08-18T08:40:58;20.80;99.90
52517;DHT22;59374;53.210;5.726;2022-08-18T08:43:35;20.80;99.90
52517;DHT22;59374;53.210;5.726;2022-08-18T08:46:05;20.70;99.90
52517;DHT22;59374;53.210;5.726;2022-08-18T08:48:35;20.70;99.90
52517;DHT22;59374;53.210;5.726;2022-08-18T08:53:37;21.10;99.90
52517;DHT22;59374;53.210;5.726;2022-08-18T08:56:07;21.20;99.90
52517;DHT22;59374;53.210;5.726;2022-08-18T08:58:39;21.50;99.90
52517;DHT22;59374;53.210;5.726;2022-08-18T09:01:24;21.60;99.90
52517;DHT22;59374;53.210;5.726;2022-08-18T09:03:54;21.60;99.90
52517;DHT22;59374;53.210;5.726;2022-08-18T09:06:30;21.40;99.90
52517;DHT22;59374;53.210;5.726;2022-08-18T09:09:15;21.40;99.90
52517;DHT22;59374;53.210;5.726;2022-08-18T09:17:28;21.60;99.90
52517;DHT22;59374;53.210;5.726;2022-08-18T09:24:50;22.10;99.90
52517;DHT22;59374;53.210;5.726;2022-08-18T09:27:30;22.20;99.90
52517;DHT22;59374;53.210;5.726;2022-08-18T09:29:58;22.10;99.90
52517;DHT22;59374;53.210;5.726;2022-08-18T09:37:45;22.30;99.90
52517;DHT22;59374;53.210;5.726;2022-08-18T09:40:16;22.50;99.90
52517;DHT22;59374;53.210;5.726;2022-08-18T09:43:09;22.40;99.90
52517;DHT22;59374;53.210;5.726;2022-08-18T09:55:53;21.90;99.90
52517;DHT22;59374;53.210;5.726;2022-08-18T10:06:35;22.30;99.90
52517;DHT22;59374;53.210;5.726;2022-08-18T10:09:03;22.60;99.90
52517;DHT22;59374;53.210;5.726;2022-08-18T10:11:46;22.90;99.90
52517;DHT22;59374;53.210;5.726;2022-08-18T10:14:22;23.10;99.90
52517;DHT22;59374;53.210;5.726;2022-08-18T10:19:37;23.10;99.90
52517;DHT22;59374;53.210;5.726;2022-08-18T10:22:07;23.20;99.90
52517;DHT22;59374;53.210;5.726;2022-08-18T10:24:35;23.00;99.90
52517;DHT22;59374;53.210;5.726;2022-08-18T10:27:47;22.70;99.90
52517;DHT22;59374;53.210;5.726;2022-08-18T10:29:51;22.40;99.90
52517;DHT22;59374;53.210;5.726;2022-08-18T10:32:21;22.30;99.90
52517;DHT22;59374;53.210;5.726;2022-08-18T10:34:48;22.30;99.90
52517;DHT22;59374;53.210;5.726;2022-08-18T10:39:53;22.60;99.90
52517;DHT22;59374;53.210;5.726;2022-08-18T10:44:44;22.70;99.90
52517;DHT22;59374;53.210;5.726;2022-08-18T10:47:25;22.90;99.90
52517;DHT22;59374;53.210;5.726;2022-08-18T10:49:50;23.00;99.90
52517;DHT22;59374;53.210;5.726;2022-08-18T10:55:08;23.10;99.90
52517;DHT22;59374;53.210;5.726;2022-08-18T10:57:47;23.10;99.90
52517;DHT22;59374;53.210;5.726;2022-08-18T11:00:17;23.00;99.90
52517;DHT22;59374;53.210;5.726;2022-08-18T11:03:03;22.80;99.90
52517;DHT22;59374;53.210;5.726;2022-08-18T11:05:33;22.80;99.90
52517;DHT22;59374;53.210;5.726;2022-08-18T11:08:01;22.90;99.90
52517;DHT22;59374;53.210;5.726;2022-08-18T11:10:35;22.90;99.90
52517;DHT22;59374;53.210;5.726;2022-08-18T11:23:39;22.20;99.90
52517;DHT22;59374;53.210;5.726;2022-08-18T11:26:14;22.60;99.90
52517;DHT22;59374;53.210;5.726;2022-08-18T11:28:40;23.20;99.90
52517;DHT22;59374;53.210;5.726;2022-08-18T11:31:06;23.80;99.90
52517;DHT22;59374;53.210;5.726;2022-08-18T11:33:32;24.50;99.90
52517;DHT22;59374;53.210;5.726;2022-08-18T11:35:57;24.60;99.90
52517;DHT22;59374;53.210;5.726;2022-08-18T11:38:24;24.70;99.90
52517;DHT22;59374;53.210;5.726;2022-08-18T11:40:52;24.30;99.90
52517;DHT22;59374;53.210;5.726;2022-08-18T11:43:25;23.90;99.90
52517;DHT22;59374;53.210;5.726;2022-08-18T11:46:10;23.80;99.90
52517;DHT22;59374;53.210;5.726;2022-08-18T11:48:37;23.70;99.90
52517;DHT22;59374;53.210;5.726;2022-08-18T12:01:03;24.10;99.90
52517;DHT22;59374;53.210;5.726;2022-08-18T12:06:21;24.10;99.90
52517;DHT22;59374;53.210;5.726;2022-08-18T12:11:19;24.00;99.90
52517;DHT22;59374;53.210;5.726;2022-08-18T12:13:47;24.00;99.90
52517;DHT22;59374;53.210;5.726;2022-08-18T12:16:17;24.30;99.90
52517;DHT22;59374;53.210;5.726;2022-08-18T12:18:54;24.50;99.90
52517;DHT22;59374;53.210;5.726;2022-08-18T12:21:20;24.50;99.90
52517;DHT22;59374;53.210;5.726;2022-08-18T12:23:45;24.60;99.90
52517;DHT22;59374;53.210;5.726;2022-08-18T12:26:12;24.50;99.90
52517;DHT22;59374;53.210;5.726;2022-08-18T12:28:38;24.50;99.90
52517;DHT22;59374;53.210;5.726;2022-08-18T12:31:03;24.60;99.90
52517;DHT22;59374;53.210;5.726;2022-08-18T12:33:29;24.60;99.90
52517;DHT22;59374;53.210;5.726;2022-08-18T12:35:55;24.70;99.90
52517;DHT22;59374;53.210;5.726;2022-08-18T12:38:21;24.70;99.90
52517;DHT22;59374;53.210;5.726;2022-08-18T12:40:47;24.60;99.90
52517;DHT22;59374;53.210;5.726;2022-08-18T12:43:13;24.60;99.90
52517;DHT22;59374;53.210;5.726;2022-08-18T12:45:39;24.50;99.90
52517;DHT22;59374;53.210;5.726;2022-08-18T12:48:05;24.70;99.90
52517;DHT22;59374;53.210;5.726;2022-08-18T12:50:32;24.90;99.90
52517;DHT22;59374;53.210;5.726;2022-08-18T12:52:57;24.80;99.90
52517;DHT22;59374;53.210;5.726;2022-08-18T12:55:23;24.70;99.90
52517;DHT22;59374;53.210;5.726;2022-08-18T12:57:48;24.70;99.90
52517;DHT22;59374;53.210;5.726;2022-08-18T13:00:14;24.80;99.90
52517;DHT22;59374;53.210;5.726;2022-08-18T13:02:40;25.10;99.90
52517;DHT22;59374;53.210;5.726;2022-08-18T13:05:05;25.50;99.90
52517;DHT22;59374;53.210;5.726;2022-08-18T13:07:31;26.00;99.90
52517;DHT22;59374;53.210;5.726;2022-08-18T13:09:57;26.00;99.90
52517;DHT22;59374;53.210;5.726;2022-08-18T13:12:23;25.80;99.90
52517;DHT22;59374;53.210;5.726;2022-08-18T13:14:49;25.40;99.90
52517;DHT22;59374;53.210;5.726;2022-08-18T13:17:15;25.10;99.90
52517;DHT22;59374;53.210;5.726;2022-08-18T13:19:41;25.00;99.90
52517;DHT22;59374;53.210;5.726;2022-08-18T13:22:07;25.00;99.90
52517;DHT22;59374;53.210;5.726;2022-08-18T13:24:32;25.10;99.90
52517;DHT22;59374;53.210;5.726;2022-08-18T13:26:58;25.20;99.90
52517;DHT22;59374;53.210;5.726;2022-08-18T13:29:23;25.10;99.90
52517;DHT22;59374;53.210;5.726;2022-08-18T13:31:50;25.00;99.90
52517;DHT22;59374;53.210;5.726;2022-08-18T13:34:21;25.00;99.90
52517;DHT22;59374;53.210;5.726;2022-08-18T13:36:47;24.90;99.90
52517;DHT22;59374;53.210;5.726;2022-08-18T13:39:13;24.70;99.90
52517;DHT22;59374;53.210;5.726;2022-08-18T13:41:39;24.60;99.90
52517;DHT22;59374;53.210;5.726;2022-08-18T13:44:08;24.70;99.90
52517;DHT22;59374;53.210;5.726;2022-08-18T13:46:34;24.90;99.90
52517;DHT22;59374;53.210;5.726;2022-08-18T13:49:07;25.00;99.90
52517;DHT22;59374;53.210;5.726;2022-08-18T13:51:32;25.00;99.90
52517;DHT22;59374;53.210;5.726;2022-08-18T13:53:58;25.40;99.90
52517;DHT22;59374;53.210;5.726;2022-08-18T13:56:24;25.80;99.90
52517;DHT22;59374;53.210;5.726;2022-08-18T13:58:50;26.30;99.90
52517;DHT22;59374;53.210;5.726;2022-08-18T14:01:15;26.60;99.90
52517;DHT22;59374;53.210;5.726;2022-08-18T14:03:41;26.80;99.90
52517;DHT22;59374;53.210;5.726;2022-08-18T14:06:06;27.00;99.90
52517;DHT22;59374;53.210;5.726;2022-08-18T14:08:32;27.10;99.90
52517;DHT22;59374;53.210;5.726;2022-08-18T14:11:00;27.10;99.90
52517;DHT22;59374;53.210;5.726;2022-08-18T14:13:26;26.20;99.90
52517;DHT22;59374;53.210;5.726;2022-08-18T14:15:55;25.80;99.90
52517;DHT22;59374;53.210;5.726;2022-08-18T14:18:22;25.40;99.90
52517;DHT22;59374;53.210;5.726;2022-08-18T14:20:47;25.10;99.90
52517;DHT22;59374;53.210;5.726;2022-08-18T14:23:32;25.40;99.90
52517;DHT22;59374;53.210;5.726;2022-08-18T14:26:30;26.10;99.90
52517;DHT22;59374;53.210;5.726;2022-08-18T14:29:15;26.70;99.90
52517;DHT22;59374;53.210;5.726;2022-08-18T14:31:41;27.60;99.90
52517;DHT22;59374;53.210;5.726;2022-08-18T14:34:07;28.30;99.90
52517;DHT22;59374;53.210;5.726;2022-08-18T14:36:33;29.00;99.10
52517;DHT22;59374;53.210;5.726;2022-08-18T14:38:59;29.20;97.60
52517;DHT22;59374;53.210;5.726;2022-08-18T14:41:25;29.20;96.80
52517;DHT22;59374;53.210;5.726;2022-08-18T14:43:50;28.60;97.70
52517;DHT22;59374;53.210;5.726;2022-08-18T14:46:17;28.00;98.00
52517;DHT22;59374;53.210;5.726;2022-08-18T14:48:42;28.20;98.00
52517;DHT22;59374;53.210;5.726;2022-08-18T14:51:08;28.90;98.00
52517;DHT22;59374;53.210;5.726;2022-08-18T14:53:34;29.70;96.90
52517;DHT22;59374;53.210;5.726;2022-08-18T14:56:01;30.10;95.70
52517;DHT22;59374;53.210;5.726;2022-08-18T14:58:28;30.60;96.30
52517;DHT22;59374;53.210;5.726;2022-08-18T15:00:58;30.90;95.20
52517;DHT22;59374;53.210;5.726;2022-08-18T15:03:24;31.40;94.40
52517;DHT22;59374;53.210;5.726;2022-08-18T15:05:50;31.60;95.10
52517;DHT22;59374;53.210;5.726;2022-08-18T15:08:16;32.10;94.70
52517;DHT22;59374;53.210;5.726;2022-08-18T15:10:43;31.90;92.70
52517;DHT22;59374;53.210;5.726;2022-08-18T15:13:09;31.20;93.00
52517;DHT22;59374;53.210;5.726;2022-08-18T15:15:35;30.30;93.80
52517;DHT22;59374;53.210;5.726;2022-08-18T15:18:00;30.40;94.50
52517;DHT22;59374;53.210;5.726;2022-08-18T15:20:26;31.30;95.50
52517;DHT22;59374;53.210;5.726;2022-08-18T15:22:52;32.40;94.20
52517;DHT22;59374;53.210;5.726;2022-08-18T15:25:36;33.50;94.00
52517;DHT22;59374;53.210;5.726;2022-08-18T15:28:30;33.90;92.10
52517;DHT22;59374;53.210;5.726;2022-08-18T15:30:57;33.80;91.40
52517;DHT22;59374;53.210;5.726;2022-08-18T15:33:23;34.20;91.60
52517;DHT22;59374;53.210;5.726;2022-08-18T15:35:50;34.20;91.20
52517;DHT22;59374;53.210;5.726;2022-08-18T15:38:17;33.80;90.90
52517;DHT22;59374;53.210;5.726;2022-08-18T15:40:47;33.50;91.00
52517;DHT22;59374;53.210;5.726;2022-08-18T15:43:13;33.60;90.60
52517;DHT22;59374;53.210;5.726;2022-08-18T15:45:40;33.60;90.80
52517;DHT22;59374;53.210;5.726;2022-08-18T15:48:07;33.30;90.60
52517;DHT22;59374;53.210;5.726;2022-08-18T15:50:33;33.00;90.60
52517;DHT22;59374;53.210;5.726;2022-08-18T15:53:00;32.80;90.70
52517;DHT22;59374;53.210;5.726;2022-08-18T15:55:28;32.60;90.60
52517;DHT22;59374;53.210;5.726;2022-08-18T15:57:54;33.00;90.70
52517;DHT22;59374;53.210;5.726;2022-08-18T16:00:21;33.10;90.30
52517;DHT22;59374;53.210;5.726;2022-08-18T16:02:57;32.90;90.20
52517;DHT22;59374;53.210;5.726;2022-08-18T16:05:27;32.90;90.60
52517;DHT22;59374;53.210;5.726;2022-08-18T16:07:53;33.00;89.80
52517;DHT22;59374;53.210;5.726;2022-08-18T16:10:21;32.60;90.10
52517;DHT22;59374;53.210;5.726;2022-08-18T16:12:47;32.50;90.10
52517;DHT22;59374;53.210;5.726;2022-08-18T16:15:13;32.50;90.30
52517;DHT22;59374;53.210;5.726;2022-08-18T16:17:39;32.00;90.30
52517;DHT22;59374;53.210;5.726;2022-08-18T16:20:05;31.70;90.40
52517;DHT22;59374;53.210;5.726;2022-08-18T16:22:33;31.80;90.70
52517;DHT22;59374;53.210;5.726;2022-08-18T16:24:58;32.20;90.80
52517;DHT22;59374;53.210;5.726;2022-08-18T16:27:26;31.90;90.70
52517;DHT22;59374;53.210;5.726;2022-08-18T16:29:53;32.00;90.50
52517;DHT22;59374;53.210;5.726;2022-08-18T16:32:20;32.10;91.00
52517;DHT22;59374;53.210;5.726;2022-08-18T16:34:45;32.00;90.80
52517;DHT22;59374;53.210;5.726;2022-08-18T16:37:11;31.70;90.80
52517;DHT22;59374;53.210;5.726;2022-08-18T16:39:36;31.50;90.70
52517;DHT22;59374;53.210;5.726;2022-08-18T16:42:02;31.50;90.90
52517;DHT22;59374;53.210;5.726;2022-08-18T16:44:28;31.40;91.00
52517;DHT22;59374;53.210;5.726;2022-08-18T16:46:57;31.40;90.90
52517;DHT22;59374;53.210;5.726;2022-08-18T16:49:22;31.30;91.10
52517;DHT22;59374;53.210;5.726;2022-08-18T16:51:55;31.10;91.00
52517;DHT22;59374;53.210;5.726;2022-08-18T16:54:21;30.90;90.90
52517;DHT22;59374;53.210;5.726;2022-08-18T16:56:46;31.10;91.20
52517;DHT22;59374;53.210;5.726;2022-08-18T16:59:12;30.70;90.90
52517;DHT22;59374;53.210;5.726;2022-08-18T17:01:56;30.90;90.90
52517;DHT22;59374;53.210;5.726;2022-08-18T17:05:00;31.00;90.80
52517;DHT22;59374;53.210;5.726;2022-08-18T17:07:28;30.80;90.70
52517;DHT22;59374;53.210;5.726;2022-08-18T17:09:54;30.50;91.10
52517;DHT22;59374;53.210;5.726;2022-08-18T17:12:20;30.60;91.10
52517;DHT22;59374;53.210;5.726;2022-08-18T17:14:46;30.70;91.00
52517;DHT22;59374;53.210;5.726;2022-08-18T17:17:13;30.70;90.70
52517;DHT22;59374;53.210;5.726;2022-08-18T17:19:38;30.70;91.00
52517;DHT22;59374;53.210;5.726;2022-08-18T17:22:04;30.50;90.70
52517;DHT22;59374;53.210;5.726;2022-08-18T17:24:30;29.90;91.20
52517;DHT22;59374;53.210;5.726;2022-08-18T17:34:50;29.50;91.60
52517;DHT22;59374;53.210;5.726;2022-08-18T17:37:19;29.40;92.20
52517;DHT22;59374;53.210;5.726;2022-08-18T17:39:56;29.50;92.20
52517;DHT22;59374;53.210;5.726;2022-08-18T17:42:25;29.60;92.30
52517;DHT22;59374;53.210;5.726;2022-08-18T17:44:51;29.30;92.00
52517;DHT22;59374;53.210;5.726;2022-08-18T17:47:20;28.90;92.60
52517;DHT22;59374;53.210;5.726;2022-08-18T17:49:47;28.90;92.90
52517;DHT22;59374;53.210;5.726;2022-08-18T17:52:35;28.80;92.70
52517;DHT22;59374;53.210;5.726;2022-08-18T17:55:08;28.80;92.80